sensor_id;sensor_type;location;lat;lon;timestamp;pressure;altitude;pressure_sealevel;temperature;humidity
54900;BME280;40801;41.924;25.562;2023-07-08T00:02:24;99379.06;;;23.91;59.68
54900;BME280;40801;41.924;25.562;2023-07-08T00:04:49;99382.19;;;23.93;59.35
54900;BME280;40801;41.924;25.562;2023-07-08T00:07:17;99372.75;;;23.94;59.64
54900;BME280;40801;41.924;25.562;2023-07-08T00:09:44;99365.28;;;23.98;58.95
54900;BME280;40801;41.924;25.562;2023-07-08T00:12:10;99374.31;;;23.99;59.04
54900;BME280;40801;41.924;25.562;2023-07-08T00:14:36;99362.16;;;24.00;59.08
54900;BME280;40801;41.924;25.562;2023-07-08T00:17:01;99364.47;;;23.98;59.25
54900;BME280;40801;41.924;25.562;2023-07-08T00:19:27;99350.31;;;23.99;58.95
54900;BME280;40801;41.924;25.562;2023-07-08T00:21:52;99347.56;;;24.03;58.65
54900;BME280;40801;41.924;25.562;2023-07-08T00:24:18;99346.00;;;24.05;58.56
54900;BME280;40801;41.924;25.562;2023-07-08T00:26:43;99342.47;;;24.05;58.89
54900;BME280;40801;41.924;25.562;2023-07-08T00:29:09;99347.19;;;24.01;58.64
54900;BME280;40801;41.924;25.562;2023-07-08T00:31:35;99340.88;;;24.04;58.39
54900;BME280;40801;41.924;25.562;2023-07-08T00:34:01;99343.22;;;24.09;58.34
54900;BME280;40801;41.924;25.562;2023-07-08T00:36:29;99342.06;;;24.10;58.37
54900;BME280;40801;41.924;25.562;2023-07-08T00:38:55;99327.47;;;24.13;58.11
54900;BME280;40801;41.924;25.562;2023-07-08T00:41:39;99331.81;;;24.10;58.55
54900;BME280;40801;41.924;25.562;2023-07-08T00:44:10;99328.66;;;24.12;58.34
54900;BME280;40801;41.924;25.562;2023-07-08T00:46:57;99336.13;;;24.19;57.70
54900;BME280;40801;41.924;25.562;2023-07-08T00:49:40;99327.47;;;24.17;58.18
54900;BME280;40801;41.924;25.562;2023-07-08T00:52:21;99322.75;;;24.17;58.01
54900;BME280;40801;41.924;25.562;2023-07-08T00:54:52;99314.88;;;24.16;58.43
54900;BME280;40801;41.924;25.562;2023-07-08T00:57:18;99320.38;;;24.16;58.18
54900;BME280;40801;41.924;25.562;2023-07-08T00:59:53;99316.84;;;24.19;57.78
54900;BME280;40801;41.924;25.562;2023-07-08T01:02:22;99312.50;;;24.18;58.06
54900;BME280;40801;41.924;25.562;2023-07-08T01:05:10;99315.25;;;24.18;57.86
54900;BME280;40801;41.924;25.562;2023-07-08T01:07:38;99314.84;;;24.19;57.87
54900;BME280;40801;41.924;25.562;2023-07-08T01:10:09;99312.53;;;24.10;58.32
54900;BME280;40801;41.924;25.562;2023-07-08T01:12:44;99303.47;;;24.14;57.82
54900;BME280;40801;41.924;25.562;2023-07-08T01:15:11;99314.09;;;24.15;58.00
54900;BME280;40801;41.924;25.562;2023-07-08T01:17:38;99321.16;;;24.20;58.13
54900;BME280;40801;41.924;25.562;2023-07-08T01:20:06;99315.66;;;24.16;58.22
54900;BME280;40801;41.924;25.562;2023-07-08T01:22:35;99326.28;;;24.18;58.04
54900;BME280;40801;41.924;25.562;2023-07-08T01:25:01;99332.59;;;24.11;58.55
54900;BME280;40801;41.924;25.562;2023-07-08T01:27:30;99328.28;;;24.10;58.20
54900;BME280;40801;41.924;25.562;2023-07-08T01:29:58;99325.91;;;24.08;58.39
54900;BME280;40801;41.924;25.562;2023-07-08T01:32:47;99333.41;;;24.04;58.55
54900;BME280;40801;41.924;25.562;2023-07-08T01:35:14;99325.53;;;24.10;58.29
54900;BME280;40801;41.924;25.562;2023-07-08T01:37:42;99338.13;;;24.04;58.79
54900;BME280;40801;41.924;25.562;2023-07-08T01:42:52;99331.44;;;24.05;58.75
54900;BME280;40801;41.924;25.562;2023-07-08T01:45:19;99338.94;;;24.01;58.83
54900;BME280;40801;41.924;25.562;2023-07-08T01:47:49;99340.50;;;23.81;60.90
54900;BME280;40801;41.924;25.562;2023-07-08T01:50:17;99346.03;;;23.73;61.31
54900;BME280;40801;41.924;25.562;2023-07-08T01:52:43;99351.16;;;23.75;61.88
54900;BME280;40801;41.924;25.562;2023-07-08T01:55:09;99359.78;;;23.77;62.07
54900;BME280;40801;41.924;25.562;2023-07-08T01:57:34;99362.53;;;23.66;62.43
54900;BME280;40801;41.924;25.562;2023-07-08T01:59:59;99370.41;;;23.61;63.21
54900;BME280;40801;41.924;25.562;2023-07-08T02:02:25;99371.53;;;23.53;63.42
54900;BME280;40801;41.924;25.562;2023-07-08T02:04:50;99382.56;;;23.53;64.02
54900;BME280;40801;41.924;25.562;2023-07-08T02:07:16;99378.63;;;23.43;64.16
54900;BME280;40801;41.924;25.562;2023-07-08T02:09:41;99383.69;;;23.37;64.17
54900;BME280;40801;41.924;25.562;2023-07-08T02:12:07;99377.84;;;23.46;63.71
54900;BME280;40801;41.924;25.562;2023-07-08T02:14:32;99387.66;;;23.51;63.42
54900;BME280;40801;41.924;25.562;2023-07-08T02:16:58;99382.16;;;23.47;63.55
54900;BME280;40801;41.924;25.562;2023-07-08T02:19:24;99375.47;;;23.48;63.05
54900;BME280;40801;41.924;25.562;2023-07-08T02:21:49;99385.66;;;23.40;63.18
54900;BME280;40801;41.924;25.562;2023-07-08T02:24:17;99381.72;;;23.34;63.13
54900;BME280;40801;41.924;25.562;2023-07-08T02:26:42;99392.78;;;23.48;62.90
54900;BME280;40801;41.924;25.562;2023-07-08T02:29:07;99388.06;;;23.45;62.79
54900;BME280;40801;41.924;25.562;2023-07-08T02:31:33;99393.19;;;23.47;62.68
54900;BME280;40801;41.924;25.562;2023-07-08T02:33:58;99401.03;;;23.45;62.84
54900;BME280;40801;41.924;25.562;2023-07-08T02:36:24;99395.09;;;23.39;63.23
54900;BME280;40801;41.924;25.562;2023-07-08T02:38:49;99399.44;;;23.40;63.24
54900;BME280;40801;41.924;25.562;2023-07-08T02:41:16;99400.97;;;23.27;64.10
54900;BME280;40801;41.924;25.562;2023-07-08T02:43:41;99403.34;;;23.29;64.52
54900;BME280;40801;41.924;25.562;2023-07-08T02:46:06;99399.00;;;23.21;64.89
54900;BME280;40801;41.924;25.562;2023-07-08T02:48:32;99406.88;;;23.22;64.74
54900;BME280;40801;41.924;25.562;2023-07-08T02:50:59;99402.56;;;23.25;64.92
54900;BME280;40801;41.924;25.562;2023-07-08T02:53:24;99406.09;;;23.18;64.63
54900;BME280;40801;41.924;25.562;2023-07-08T02:55:50;99398.59;;;23.15;64.66
54900;BME280;40801;41.924;25.562;2023-07-08T02:58:15;99410.34;;;23.12;64.51
54900;BME280;40801;41.924;25.562;2023-07-08T03:00:40;99415.13;;;23.18;64.24
54900;BME280;40801;41.924;25.562;2023-07-08T03:03:06;99415.13;;;23.18;64.16
54900;BME280;40801;41.924;25.562;2023-07-08T03:05:31;99404.13;;;23.18;63.80
54900;BME280;40801;41.924;25.562;2023-07-08T03:07:57;99419.78;;;23.11;64.03
54900;BME280;40801;41.924;25.562;2023-07-08T03:10:22;99423.38;;;23.18;63.66
54900;BME280;40801;41.924;25.562;2023-07-08T03:12:47;99430.41;;;23.12;63.04
54900;BME280;40801;41.924;25.562;2023-07-08T03:15:13;99421.00;;;23.17;63.09
54900;BME280;40801;41.924;25.562;2023-07-08T03:17:38;99426.91;;;23.15;62.75
54900;BME280;40801;41.924;25.562;2023-07-08T03:20:04;99428.50;;;23.24;62.43
54900;BME280;40801;41.924;25.562;2023-07-08T03:22:31;99423.38;;;23.15;62.33
54900;BME280;40801;41.924;25.562;2023-07-08T03:24:56;99433.59;;;23.18;62.43
54900;BME280;40801;41.924;25.562;2023-07-08T03:27:22;99433.59;;;23.18;61.99
54900;BME280;40801;41.924;25.562;2023-07-08T03:29:47;99441.09;;;23.28;61.76
54900;BME280;40801;41.924;25.562;2023-07-08T03:32:12;99437.94;;;23.30;61.85
54900;BME280;40801;41.924;25.562;2023-07-08T03:34:38;99446.19;;;23.30;61.52
54900;BME280;40801;41.924;25.562;2023-07-08T03:37:04;99450.13;;;23.29;61.72
54900;BME280;40801;41.924;25.562;2023-07-08T03:39:30;99451.31;;;23.28;62.04
54900;BME280;40801;41.924;25.562;2023-07-08T03:41:57;99451.28;;;23.24;62.65
54900;BME280;40801;41.924;25.562;2023-07-08T03:44:23;99457.59;;;23.25;61.98
54900;BME280;40801;41.924;25.562;2023-07-08T03:46:49;99451.28;;;23.21;62.64
54900;BME280;40801;41.924;25.562;2023-07-08T03:49:16;99448.94;;;23.30;62.29
54900;BME280;40801;41.924;25.562;2023-07-08T03:51:42;99452.50;;;23.34;61.76
54900;BME280;40801;41.924;25.562;2023-07-08T03:54:12;99449.34;;;23.35;62.40
54900;BME280;40801;41.924;25.562;2023-07-08T03:56:38;99434.81;;;23.38;61.94
54900;BME280;40801;41.924;25.562;2023-07-08T03:59:04;99443.91;;;23.49;61.77
54900;BME280;40801;41.924;25.562;2023-07-08T04:01:30;99435.66;;;23.49;61.24
54900;BME280;40801;41.924;25.562;2023-07-08T04:03:56;99437.56;;;23.38;61.09
54900;BME280;40801;41.924;25.562;2023-07-08T04:06:22;99434.06;;;23.52;60.60
54900;BME280;40801;41.924;25.562;2023-07-08T04:08:48;99441.59;;;23.59;60.72
54900;BME280;40801;41.924;25.562;2023-07-08T04:11:18;99431.34;;;23.59;60.46
54900;BME280;40801;41.924;25.562;2023-07-08T04:13:44;99439.22;;;23.68;60.07
54900;BME280;40801;41.924;25.562;2023-07-08T04:16:40;99442.38;;;23.56;60.42
54900;BME280;40801;41.924;25.562;2023-07-08T04:19:12;99443.97;;;23.71;59.97
54900;BME280;40801;41.924;25.562;2023-07-08T04:21:40;99444.75;;;23.64;60.25
54900;BME280;40801;41.924;25.562;2023-07-08T04:24:06;99444.78;;;23.75;59.74
54900;BME280;40801;41.924;25.562;2023-07-08T04:26:32;99449.09;;;23.72;59.63
54900;BME280;40801;41.924;25.562;2023-07-08T04:29:01;99445.91;;;23.63;60.04
54900;BME280;40801;41.924;25.562;2023-07-08T04:31:26;99443.94;;;23.60;60.07
54900;BME280;40801;41.924;25.562;2023-07-08T04:33:52;99440.44;;;23.74;60.07
54900;BME280;40801;41.924;25.562;2023-07-08T04:36:17;99434.53;;;23.79;59.52
54900;BME280;40801;41.924;25.562;2023-07-08T04:38:42;99431.38;;;23.88;59.69
54900;BME280;40801;41.924;25.562;2023-07-08T04:41:11;99428.63;;;23.88;59.50
54900;BME280;40801;41.924;25.562;2023-07-08T04:43:37;99421.56;;;24.15;59.31
54900;BME280;40801;41.924;25.562;2023-07-08T04:46:06;99430.63;;;24.37;58.71
54900;BME280;40801;41.924;25.562;2023-07-08T04:48:41;99433.34;;;24.51;58.29
54900;BME280;40801;41.924;25.562;2023-07-08T04:51:08;99423.47;;;24.57;59.00
54900;BME280;40801;41.924;25.562;2023-07-08T04:53:33;99426.56;;;24.77;58.52
54900;BME280;40801;41.924;25.562;2023-07-08T04:55:59;99408.84;;;24.78;57.82
54900;BME280;40801;41.924;25.562;2023-07-08T04:58:24;99406.53;;;24.66;57.62
54900;BME280;40801;41.924;25.562;2023-07-08T05:00:50;99397.41;;;24.80;57.11
54900;BME280;40801;41.924;25.562;2023-07-08T05:03:15;99409.75;;;24.36;57.38
54900;BME280;40801;41.924;25.562;2023-07-08T05:05:41;99395.13;;;24.53;56.51
54900;BME280;40801;41.924;25.562;2023-07-08T05:08:07;99400.69;;;24.39;57.11
54900;BME280;40801;41.924;25.562;2023-07-08T05:10:32;99397.88;;;24.53;57.14
54900;BME280;40801;41.924;25.562;2023-07-08T05:12:58;99406.91;;;24.71;56.40
54900;BME280;40801;41.924;25.562;2023-07-08T05:15:23;99409.31;;;24.62;56.36
54900;BME280;40801;41.924;25.562;2023-07-08T05:17:50;99425.03;;;24.73;56.27
54900;BME280;40801;41.924;25.562;2023-07-08T05:20:16;99432.44;;;24.97;55.67
54900;BME280;40801;41.924;25.562;2023-07-08T05:22:43;99441.44;;;25.12;55.34
54900;BME280;40801;41.924;25.562;2023-07-08T05:25:10;99452.81;;;25.28;55.13
54900;BME280;40801;41.924;25.562;2023-07-08T05:27:36;99463.81;;;25.35;54.39
54900;BME280;40801;41.924;25.562;2023-07-08T05:30:03;99458.31;;;25.31;54.58
54900;BME280;40801;41.924;25.562;2023-07-08T05:32:28;99476.00;;;25.48;54.51
54900;BME280;40801;41.924;25.562;2023-07-08T05:34:54;99460.75;;;25.22;54.60
54900;BME280;40801;41.924;25.562;2023-07-08T05:37:20;99474.47;;;25.33;53.92
54900;BME280;40801;41.924;25.562;2023-07-08T05:39:51;99466.97;;;25.37;54.32
54900;BME280;40801;41.924;25.562;2023-07-08T05:42:17;99472.88;;;25.39;54.49
54900;BME280;40801;41.924;25.562;2023-07-08T05:44:43;99473.25;;;25.48;55.02
54900;BME280;40801;41.924;25.562;2023-07-08T05:47:08;99470.81;;;25.57;54.68
54900;BME280;40801;41.924;25.562;2023-07-08T05:49:33;99479.91;;;25.54;54.79
54900;BME280;40801;41.924;25.562;2023-07-08T05:51:59;99473.28;;;25.34;54.90
54900;BME280;40801;41.924;25.562;2023-07-08T05:54:30;99473.75;;;25.25;55.22
54900;BME280;40801;41.924;25.562;2023-07-08T05:56:56;99473.25;;;25.48;55.02
54900;BME280;40801;41.924;25.562;2023-07-08T05:59:21;99470.41;;;25.59;54.94
54900;BME280;40801;41.924;25.562;2023-07-08T06:01:46;99478.16;;;25.85;54.68
54900;BME280;40801;41.924;25.562;2023-07-08T06:04:12;99480.44;;;25.98;54.46
54900;BME280;40801;41.924;25.562;2023-07-08T06:06:37;99481.56;;;26.07;54.04
54900;BME280;40801;41.924;25.562;2023-07-08T06:09:03;99488.66;;;26.08;53.81
54900;BME280;40801;41.924;25.562;2023-07-08T06:11:29;99477.31;;;25.92;53.48
54900;BME280;40801;41.924;25.562;2023-07-08T06:13:54;99482.72;;;26.10;53.71
54900;BME280;40801;41.924;25.562;2023-07-08T06:16:19;99480.97;;;26.34;53.40
54900;BME280;40801;41.924;25.562;2023-07-08T06:18:45;99478.44;;;26.50;53.41
54900;BME280;40801;41.924;25.562;2023-07-08T06:21:10;99485.81;;;26.67;52.97
54900;BME280;40801;41.924;25.562;2023-07-08T06:23:36;99484.84;;;26.81;52.54
54900;BME280;40801;41.924;25.562;2023-07-08T06:26:01;99492.75;;;26.82;52.38
54900;BME280;40801;41.924;25.562;2023-07-08T06:28:26;99490.88;;;26.72;52.32
54900;BME280;40801;41.924;25.562;2023-07-08T06:30:52;99483.50;;;26.96;52.14
54900;BME280;40801;41.924;25.562;2023-07-08T06:33:17;99483.09;;;26.98;51.87
54900;BME280;40801;41.924;25.562;2023-07-08T06:35:43;99484.88;;;27.19;51.50
54900;BME280;40801;41.924;25.562;2023-07-08T06:38:10;99489.31;;;27.09;51.22
54900;BME280;40801;41.924;25.562;2023-07-08T06:43:19;99494.81;;;27.12;51.82
54900;BME280;40801;41.924;25.562;2023-07-08T06:45:44;99500.50;;;27.32;51.22
54900;BME280;40801;41.924;25.562;2023-07-08T06:48:10;99505.13;;;27.42;51.05
54900;BME280;40801;41.924;25.562;2023-07-08T06:50:35;99513.47;;;27.39;51.70
54900;BME280;40801;41.924;25.562;2023-07-08T06:53:01;99509.28;;;27.58;50.84
54900;BME280;40801;41.924;25.562;2023-07-08T06:55:26;99517.97;;;27.60;50.88
54900;BME280;40801;41.924;25.562;2023-07-08T06:57:52;99514.03;;;27.88;50.71
54900;BME280;40801;41.924;25.562;2023-07-08T07:00:17;99514.59;;;28.02;50.05
54900;BME280;40801;41.924;25.562;2023-07-08T07:02:43;99513.13;;;28.21;48.88
54900;BME280;40801;41.924;25.562;2023-07-08T07:05:09;99514.38;;;28.44;48.77
54900;BME280;40801;41.924;25.562;2023-07-08T07:07:34;99525.75;;;28.73;48.04
54900;BME280;40801;41.924;25.562;2023-07-08T07:10:00;99513.44;;;28.74;47.59
54900;BME280;40801;41.924;25.562;2023-07-08T07:12:26;99522.50;;;28.78;48.07
54900;BME280;40801;41.924;25.562;2023-07-08T07:14:52;99521.34;;;28.98;47.70
54900;BME280;40801;41.924;25.562;2023-07-08T07:17:20;99519.50;;;29.12;47.47
54900;BME280;40801;41.924;25.562;2023-07-08T07:19:45;99525.41;;;28.94;47.03
54900;BME280;40801;41.924;25.562;2023-07-08T07:22:11;99519.50;;;29.12;46.76
54900;BME280;40801;41.924;25.562;2023-07-08T07:24:36;99512.09;;;29.05;46.57
54900;BME280;40801;41.924;25.562;2023-07-08T07:27:02;99514.38;;;29.10;46.42
54900;BME280;40801;41.924;25.562;2023-07-08T07:29:40;99503.88;;;29.38;46.19
54900;BME280;40801;41.924;25.562;2023-07-08T07:32:06;99513.25;;;29.27;46.11
54900;BME280;40801;41.924;25.562;2023-07-08T07:34:32;99494.34;;;29.39;45.76
54900;BME280;40801;41.924;25.562;2023-07-08T07:36:57;99507.22;;;29.69;45.60
54900;BME280;40801;41.924;25.562;2023-07-08T07:39:22;99502.34;;;29.73;45.34
54900;BME280;40801;41.924;25.562;2023-07-08T07:41:48;99509.00;;;29.95;44.65
54900;BME280;40801;41.924;25.562;2023-07-08T07:44:13;99505.59;;;29.87;44.16
54900;BME280;40801;41.924;25.562;2023-07-08T07:46:38;99496.13;;;29.85;44.02
54900;BME280;40801;41.924;25.562;2023-07-08T07:49:04;99502.41;;;30.05;43.95
54900;BME280;40801;41.924;25.562;2023-07-08T07:51:29;99509.69;;;29.83;44.03
54900;BME280;40801;41.924;25.562;2023-07-08T07:53:55;99505.84;;;30.13;43.36
54900;BME280;40801;41.924;25.562;2023-07-08T07:56:20;99510.81;;;30.02;43.46
54900;BME280;40801;41.924;25.562;2023-07-08T07:58:45;99518.53;;;30.14;43.59
54900;BME280;40801;41.924;25.562;2023-07-08T08:01:11;99503.72;;;30.33;42.54
54900;BME280;40801;41.924;25.562;2023-07-08T08:03:38;99510.59;;;30.61;43.59
54900;BME280;40801;41.924;25.562;2023-07-08T08:06:04;99514.94;;;30.62;42.23
54900;BME280;40801;41.924;25.562;2023-07-08T08:08:29;99517.47;;;30.73;41.99
54900;BME280;40801;41.924;25.562;2023-07-08T08:10:54;99510.56;;;30.77;41.12
54900;BME280;40801;41.924;25.562;2023-07-08T08:13:20;99521.56;;;30.68;40.90
54900;BME280;40801;41.924;25.562;2023-07-08T08:15:45;99512.41;;;30.51;40.42
54900;BME280;40801;41.924;25.562;2023-07-08T08:18:11;99523.19;;;30.33;40.59
54900;BME280;40801;41.924;25.562;2023-07-08T08:20:36;99520.56;;;30.59;40.83
54900;BME280;40801;41.924;25.562;2023-07-08T08:23:02;99520.88;;;30.93;40.76
54900;BME280;40801;41.924;25.562;2023-07-08T08:25:27;99522.56;;;30.58;41.46
54900;BME280;40801;41.924;25.562;2023-07-08T08:27:52;99516.31;;;30.54;40.97
54900;BME280;40801;41.924;25.562;2023-07-08T08:30:18;99526.50;;;30.77;40.91
54900;BME280;40801;41.924;25.562;2023-07-08T08:32:44;99509.13;;;31.02;40.46
54900;BME280;40801;41.924;25.562;2023-07-08T08:35:09;99513.50;;;31.16;40.03
54900;BME280;40801;41.924;25.562;2023-07-08T08:37:35;99517.06;;;31.45;39.77
54900;BME280;40801;41.924;25.562;2023-07-08T08:40:00;99507.97;;;31.95;38.89
54900;BME280;40801;41.924;25.562;2023-07-08T08:44:58;99515.19;;;32.91;37.51
54900;BME280;40801;41.924;25.562;2023-07-08T08:47:45;99516.38;;;33.03;37.61
54900;BME280;40801;41.924;25.562;2023-07-08T08:50:20;99502.16;;;32.75;37.92
54900;BME280;40801;41.924;25.562;2023-07-08T08:52:51;99506.97;;;32.75;38.68
54900;BME280;40801;41.924;25.562;2023-07-08T08:55:17;99524.47;;;32.02;42.21
54900;BME280;40801;41.924;25.562;2023-07-08T08:57:52;99523.72;;;31.35;47.76
54900;BME280;40801;41.924;25.562;2023-07-08T09:00:25;99534.78;;;30.64;50.11
54900;BME280;40801;41.924;25.562;2023-07-08T09:02:58;99531.88;;;30.03;52.74
54900;BME280;40801;41.924;25.562;2023-07-08T09:05:25;99536.00;;;29.39;54.41
54900;BME280;40801;41.924;25.562;2023-07-08T09:08:21;99519.72;;;28.78;55.64
54900;BME280;40801;41.924;25.562;2023-07-08T09:10:57;99519.94;;;28.17;57.39
54900;BME280;40801;41.924;25.562;2023-07-08T09:13:30;99513.44;;;27.73;57.92
54900;BME280;40801;41.924;25.562;2023-07-08T09:16:10;99515.78;;;27.44;60.83
54900;BME280;40801;41.924;25.562;2023-07-08T09:21:25;99532.97;;;27.32;62.66
54900;BME280;40801;41.924;25.562;2023-07-08T09:23:56;99524.81;;;27.17;62.70
54900;BME280;40801;41.924;25.562;2023-07-08T09:26:27;99523.91;;;27.28;62.12
54900;BME280;40801;41.924;25.562;2023-07-08T09:28:54;99525.47;;;27.29;63.00
54900;BME280;40801;41.924;25.562;2023-07-08T09:33:51;99501.53;;;27.11;64.68
54900;BME280;40801;41.924;25.562;2023-07-08T09:36:21;99485.38;;;26.69;63.45
54900;BME280;40801;41.924;25.562;2023-07-08T09:38:48;99501.81;;;26.45;63.17
54900;BME280;40801;41.924;25.562;2023-07-08T09:41:28;99543.84;;;26.19;63.41
54900;BME280;40801;41.924;25.562;2023-07-08T09:44:03;99594.75;;;25.41;65.77
54900;BME280;40801;41.924;25.562;2023-07-08T09:46:29;99572.38;;;24.68;65.16
54900;BME280;40801;41.924;25.562;2023-07-08T09:51:39;99577.38;;;23.91;69.65
54900;BME280;40801;41.924;25.562;2023-07-08T09:54:05;99576.19;;;23.92;70.35
54900;BME280;40801;41.924;25.562;2023-07-08T09:56:30;99586.44;;;23.88;70.84
54900;BME280;40801;41.924;25.562;2023-07-08T09:58:56;99607.19;;;23.68;71.53
54900;BME280;40801;41.924;25.562;2023-07-08T10:01:25;99581.28;;;23.72;72.87
54900;BME280;40801;41.924;25.562;2023-07-08T10:03:57;99559.97;;;23.59;74.52
54900;BME280;40801;41.924;25.562;2023-07-08T10:06:28;99558.88;;;23.85;73.50
54900;BME280;40801;41.924;25.562;2023-07-08T10:09:02;99549.81;;;23.84;74.91
54900;BME280;40801;41.924;25.562;2023-07-08T10:11:31;99540.44;;;24.06;73.35
54900;BME280;40801;41.924;25.562;2023-07-08T10:14:07;99545.59;;;24.36;72.62
54900;BME280;40801;41.924;25.562;2023-07-08T10:16:36;99536.94;;;24.59;69.60
54900;BME280;40801;41.924;25.562;2023-07-08T10:19:11;99530.22;;;24.78;68.82
54900;BME280;40801;41.924;25.562;2023-07-08T10:27:39;99522.88;;;25.59;68.64
54900;BME280;40801;41.924;25.562;2023-07-08T10:35:27;99514.84;;;26.45;63.61
54900;BME280;40801;41.924;25.562;2023-07-08T10:38:13;99517.44;;;26.66;64.10
54900;BME280;40801;41.924;25.562;2023-07-08T10:41:00;99517.22;;;26.46;65.91
54900;BME280;40801;41.924;25.562;2023-07-08T10:43:31;99524.34;;;26.44;66.42
54900;BME280;40801;41.924;25.562;2023-07-08T10:49:07;99521.75;;;26.19;67.79
54900;BME280;40801;41.924;25.562;2023-07-08T10:54:57;99510.44;;;25.96;68.44
54900;BME280;40801;41.924;25.562;2023-07-08T11:00:36;99500.94;;;26.00;70.33
54900;BME280;40801;41.924;25.562;2023-07-08T11:03:35;99497.16;;;26.35;67.71
54900;BME280;40801;41.924;25.562;2023-07-08T11:06:12;99475.94;;;27.04;64.52
54900;BME280;40801;41.924;25.562;2023-07-08T11:08:52;99459.94;;;28.03;61.15
54900;BME280;40801;41.924;25.562;2023-07-08T11:14:28;99452.13;;;29.27;55.49
54900;BME280;40801;41.924;25.562;2023-07-08T11:17:12;99448.63;;;30.12;52.42
54900;BME280;40801;41.924;25.562;2023-07-08T11:20:00;99453.25;;;30.93;50.23
54900;BME280;40801;41.924;25.562;2023-07-08T11:22:29;99465.44;;;31.40;49.99
54900;BME280;40801;41.924;25.562;2023-07-08T11:24:59;99456.41;;;32.25;48.41
54900;BME280;40801;41.924;25.562;2023-07-08T11:27:39;99457.94;;;32.95;45.58
54900;BME280;40801;41.924;25.562;2023-07-08T11:30:13;99474.66;;;33.61;44.87
54900;BME280;40801;41.924;25.562;2023-07-08T11:32:42;99477.44;;;33.92;43.33
54900;BME280;40801;41.924;25.562;2023-07-08T11:35:23;99471.00;;;34.23;42.72
54900;BME280;40801;41.924;25.562;2023-07-08T11:37:51;99458.44;;;34.64;41.75
54900;BME280;40801;41.924;25.562;2023-07-08T11:40:23;99458.09;;;35.17;40.60
54900;BME280;40801;41.924;25.562;2023-07-08T11:43:03;99462.66;;;34.77;41.47
54900;BME280;40801;41.924;25.562;2023-07-08T11:45:37;99467.19;;;35.02;38.41
54900;BME280;40801;41.924;25.562;2023-07-08T11:55:34;99468.63;;;33.72;39.81
54900;BME280;40801;41.924;25.562;2023-07-08T11:58:00;99488.16;;;33.10;41.49
54900;BME280;40801;41.924;25.562;2023-07-08T12:00:31;99491.25;;;32.68;43.67
54900;BME280;40801;41.924;25.562;2023-07-08T12:03:22;99504.53;;;30.95;45.25
54900;BME280;40801;41.924;25.562;2023-07-08T12:05:48;99497.97;;;30.57;47.10
54900;BME280;40801;41.924;25.562;2023-07-08T12:08:15;99491.28;;;30.99;47.39
54900;BME280;40801;41.924;25.562;2023-07-08T12:10:49;99492.75;;;30.59;47.82
54900;BME280;40801;41.924;25.562;2023-07-08T12:13:19;99487.03;;;30.49;48.62
54900;BME280;40801;41.924;25.562;2023-07-08T12:15:46;99500.22;;;29.97;49.56
54900;BME280;40801;41.924;25.562;2023-07-08T12:20:56;99509.31;;;29.25;51.26
54900;BME280;40801;41.924;25.562;2023-07-08T12:23:23;99517.91;;;28.91;51.70
54900;BME280;40801;41.924;25.562;2023-07-08T12:25:50;99520.44;;;28.58;53.32
54900;BME280;40801;41.924;25.562;2023-07-08T12:28:16;99513.16;;;27.94;55.32
54900;BME280;40801;41.924;25.562;2023-07-08T12:30:44;99525.31;;;28.00;55.39
54900;BME280;40801;41.924;25.562;2023-07-08T12:33:16;99530.44;;;27.75;60.44
54900;BME280;40801;41.924;25.562;2023-07-08T12:35:44;99540.75;;;27.40;58.78
54900;BME280;40801;41.924;25.562;2023-07-08T12:38:30;99547.72;;;26.80;62.66
54900;BME280;40801;41.924;25.562;2023-07-08T12:40:58;99562.94;;;26.58;61.67
54900;BME280;40801;41.924;25.562;2023-07-08T12:43:25;99579.25;;;26.45;61.69
54900;BME280;40801;41.924;25.562;2023-07-08T12:45:50;99592.91;;;26.08;65.04
54900;BME280;40801;41.924;25.562;2023-07-08T12:48:15;99601.34;;;25.83;66.17
54900;BME280;40801;41.924;25.562;2023-07-08T12:50:41;99596.25;;;25.74;67.05
54900;BME280;40801;41.924;25.562;2023-07-08T12:53:06;99582.44;;;25.60;67.10
54900;BME280;40801;41.924;25.562;2023-07-08T12:55:39;99566.34;;;25.37;68.20
54900;BME280;40801;41.924;25.562;2023-07-08T12:58:10;99542.00;;;24.96;70.29
54900;BME280;40801;41.924;25.562;2023-07-08T13:00:39;99537.69;;;24.92;70.60
54900;BME280;40801;41.924;25.562;2023-07-08T13:03:10;99538.47;;;24.82;70.68
54900;BME280;40801;41.924;25.562;2023-07-08T13:05:38;99531.41;;;24.77;70.90
54900;BME280;40801;41.924;25.562;2023-07-08T13:08:04;99530.22;;;24.78;71.27
54900;BME280;40801;41.924;25.562;2023-07-08T13:10:31;99517.19;;;24.93;71.33
54900;BME280;40801;41.924;25.562;2023-07-08T13:13:03;99519.16;;;24.92;72.58
54900;BME280;40801;41.924;25.562;2023-07-08T13:15:34;99512.41;;;25.18;71.45
54900;BME280;40801;41.924;25.562;2023-07-08T13:18:02;99513.88;;;25.48;72.63
54900;BME280;40801;41.924;25.562;2023-07-08T13:20:28;99523.38;;;26.13;71.14
54900;BME280;40801;41.924;25.562;2023-07-08T13:22:58;99529.09;;;26.84;70.11
54900;BME280;40801;41.924;25.562;2023-07-08T13:25:30;99526.50;;;27.42;68.77
54900;BME280;40801;41.924;25.562;2023-07-08T13:28:15;99522.66;;;27.93;65.63
54900;BME280;40801;41.924;25.562;2023-07-08T13:30:59;99533.03;;;27.59;62.66
54900;BME280;40801;41.924;25.562;2023-07-08T13:33:32;99523.97;;;28.12;60.38
54900;BME280;40801;41.924;25.562;2023-07-08T13:36:02;99526.16;;;27.97;62.74
54900;BME280;40801;41.924;25.562;2023-07-08T13:38:33;99530.31;;;28.40;60.68
54900;BME280;40801;41.924;25.562;2023-07-08T13:41:01;99536.31;;;29.05;60.39
54900;BME280;40801;41.924;25.562;2023-07-08T13:43:29;99535.66;;;28.97;56.65
54900;BME280;40801;41.924;25.562;2023-07-08T13:45:55;99536.72;;;29.82;56.35
54900;BME280;40801;41.924;25.562;2023-07-08T13:48:25;99534.19;;;30.40;52.65